6 juillet 2022

Temps Code Temps Temp. Vue Base cloud Vent METAR/SPECI
10:20 am
V
66 °F 6¼ mi+ - 050° 050° 3 kt METAR ETHL 060820Z 05003KT 9999 FEW070 19/10 Q1023 BLU+BLU+
9:20 am
V
66 °F 6¼ mi+ - 200° 200° 2 kt METAR ETHL 060720Z 20002KT 9999 FEW070 19/10 Q1023 BLU+BLU+
8:20 am
V
61 °F 6¼ mi+ - Var Var 2 kt METAR ETHL 060620Z VRB02KT 9999 FEW070 16/10 Q1023 BLU+BLU+
7:20 am
V
59 °F 6¼ mi+ - 240° 240° 2 kt METAR ETHL 060520Z 24002KT 9999 FEW070 15/10 Q1023 BLU+BLU+
6:20 am
V
55 °F 6¼ mi+ - 230° 230° 3 kt METAR ETHL 060420Z 23003KT 9999 FEW070 13/10 Q1023 BLU+BLU+
5:20 am
V
55 °F 6¼ mi+ - 260° 260° 4 kt METAR ETHL 060320Z AUTO 26004KT 9999 // ////// 13/10 Q1023 ///
4:20 am
V
57 °F 5⅝ mi - 270° 270° 4 kt METAR ETHL 060220Z AUTO 27004KT 9000 // ////// 14/11 Q1022 ///
3:20 am
M
57 °F 3¾ mi - Var Var 2 kt METAR ETHL 060120Z AUTO VRB02KT 6000 // ////// 14/11 Q1022 ///
2:20 am
V
59 °F 5⅝ mi - 210° 210° 3 kt METAR ETHL 060020Z AUTO 21003KT 9000 // ////// 15/11 Q1022 ///
1:20 am
M
61 °F 3¾ mi - 200° 200° 3 kt METAR ETHL 052320Z AUTO 20003KT 6000 // ////// 16/12 Q1022 ///
12:20 am
M
63 °F 3¾ mi - 240° 240° 2 kt METAR ETHL 052220Z AUTO 24002KT 6000 // ////// 17/12 Q1022 ///

5 juillet 2022

Temps Code Temps Temp. Vue Base cloud Vent METAR/SPECI
11:20 pm
V
64 °F 6¼ mi+ - 220° 220° 1 kt METAR ETHL 052120Z 22001KT 9999 FEW070 18/11 Q1022 BLU+
10:20 pm
V
68 °F 6¼ mi+ - 210° 210° 5 kt METAR ETHL 052020Z 21005KT 9999 FEW060 SCT070 20/11 Q1022 BLU+
9:20 pm
V
72 °F 6¼ mi+ - 040° 040° 3 kt METAR ETHL 051920Z 04003KT 9999 FEW060TCU SCT070 22/09 Q1021 BLU+
8:20 pm
V
73 °F 6¼ mi+ - 030° 030° 3 kt METAR ETHL 051820Z 03003KT 9999 FEW070 23/09 Q1021 BLU+
7:20 pm
V
75 °F 6¼ mi+ - 360° 360° 1 kt METAR ETHL 051720Z 36001KT 9999 FEW070 24/09 Q1020 BLU+
6:20 pm
V
75 °F 6¼ mi+ - 310° 310° 2 kt METAR ETHL 051620Z 31002KT 9999 FEW070 24/08 Q1020 BLU+
5:20 pm
V
77 °F 6¼ mi+ - 290° 290° 5 - 18 kt METAR ETHL 051520Z 29005G18KT 9999 FEW070 25/07 Q1021 BLU+FCST CANCEL
4:20 pm
V
77 °F 6¼ mi+ - 310° 310° 4 kt METAR ETHL 051420Z 31004KT 9999 FEW070 25/07 Q1021 BLU+BLU+
3:20 pm
V
77 °F 6¼ mi+ - 270° 270° 6 kt METAR ETHL 051320Z 27006KT 9999 SCT060 25/08 Q1021 BLU+BLU+
2:20 pm
V
75 °F 6¼ mi+ - 250° 250° 4 kt METAR ETHL 051220Z 25004KT 9999 SCT060 24/09 Q1021 BLU+BLU+
1:20 pm
V
73 °F 6¼ mi+ - 280° 280° 3 kt METAR ETHL 051120Z 28003KT 9999 SCT060 23/08 Q1022 BLU+BLU+
12:20 pm
V
72 °F 6¼ mi+ - 260° 260° 5 kt METAR ETHL 051020Z 26005KT 9999 SCT042 22/09 Q1022 BLU+BLU+
11:20 am
V
73 °F 6¼ mi+ - 200° 200° 5 kt METAR ETHL 050920Z 20005KT 9999 FEW040 23/11 Q1022 BLU+BLU+
10:20 am
V
70 °F 6¼ mi+ - 260° 260° 3 kt METAR ETHL 050820Z 26003KT 9999 FEW035 21/12 Q1022 BLU+BLU+
9:20 am
V
66 °F 6¼ mi+ - Var Var 3 kt METAR ETHL 050720Z VRB03KT 9999 FEW020 19/15 Q1021 BLU+BLU+
8:20 am
V
63 °F 5 mi - 270° 270° 4 kt METAR ETHL 050620Z 27004KT 8000 FEW005 SCT100 17/15 Q1021 BLU+BLU+
8:00 am
M
61 °F 3⅛ mi - 240° 240° 4 kt METAR ETHL 050600Z 24004KT 5000 BR FEW004 SCT100 16/15 Q1021 WHT WHT BECMG BLU
7:35 am
I
61 °F 2½ mi - Var Var 2 kt METAR ETHL 050535Z VRB02KT 4000 VCFG BR SCT003 SCT100 16/15 Q1021 GRN GRN BECMG BLU
7:20 am
I
61 °F 1⅞ mi - 250° 250° 3 kt METAR ETHL 050520Z 25003KT 3000 VCFG BR SCT002 SCT100 16/15 Q1021 YLO YLO BECMG BLU
6:20 am
L
59 °F 1 mi 200 ft 280° 280° 2 kt METAR ETHL 050420Z 28002KT 1600 VCFG BR BKN002 15/15 Q1021 AMB RED BECMG BLU
5:20 am
I
59 °F 2⅛ mi - 270° 270° 2 kt METAR ETHL 050320Z AUTO 27002KT 3400 // ////// 15/15 Q1020 ///
4:20 am
L
61 °F ¼ mi - 240° 240° 5 kt METAR ETHL 050220Z AUTO 24005KT 0450 // ////// 16/15 Q1020 ///
3:20 am
L
61 °F 0 mi - 250° 250° 4 kt METAR ETHL 050120Z AUTO 25004KT 0100 // ////// 16/15 Q1020 ///
2:20 am
V
61 °F 5 mi - 240° 240° 4 kt METAR ETHL 050020Z AUTO 24004KT 8000 // ////// 16/16 Q1020 ///
1:20 am
M
63 °F 4⅜ mi - 220° 220° 4 kt METAR ETHL 042320Z AUTO 22004KT 7000 // ////// 17/16 Q1020 ///
12:20 am
M
63 °F 3¾ mi - 280° 280° 2 kt METAR ETHL 042220Z AUTO 28002KT 6000 // ////// 17/16 Q1020 ///

4 juillet 2022

Temps Code Temps Temp. Vue Base cloud Vent METAR/SPECI
11:20 pm
V
64 °F 6¼ mi+ 6.000 ft 250° 250° 3 kt METAR ETHL 042120Z 25003KT 9999 FEW012 BKN060 18/17 Q1020 BLU
10:20 pm
V
64 °F 6¼ mi+ 6.000 ft 240° 240° 4 kt METAR ETHL 042020Z 24004KT 9999 -RA FEW012 SCT030 BKN060 18/17 Q1020 BLU
9:20 pm
V
66 °F 6¼ mi+ 4.000 ft 270° 270° 5 kt METAR ETHL 041920Z 27005KT 9999 FEW030 BKN040 19/17 Q1020 BLU
8:20 pm
V
66 °F 6¼ mi+ 12.000 ft 230° 230° 4 kt METAR ETHL 041820Z 23004KT 9999 SCT040 BKN120 19/17 Q1019 BLU
7:20 pm
V
68 °F 6¼ mi+ 10.000 ft 200° 200° 4 kt METAR ETHL 041720Z 20004KT 9999 -RA SCT040 BKN100 20/18 Q1019 BLU
6:20 pm
V
70 °F 6¼ mi+ 9.000 ft 350° 350° 1 kt METAR ETHL 041620Z 35001KT 9999 -SHRA SCT040 BKN090 21/16 Q1019 BLU
5:20 pm
V
73 °F 6¼ mi+ 12.000 ft 010° 010° 1 kt METAR ETHL 041520Z 01001KT 9999 VCSH SCT040CB BKN120 BKN180 23/14 Q1019 BLU
5:00 pm
V
73 °F 6¼ mi+ 12.000 ft 020° 020° 1 kt METAR ETHL 041500Z 02001KT 9999 VCTS VCSH SCT040CB BKN120 BKN180 23/14 Q1018 BLU FCST CNL
4:42 pm
V
73 °F 6¼ mi+ 12.000 ft 010° 010° 1 kt METAR ETHL 041442Z 01001KT 9999 VCTS VCSH SCT040CB BKN120 23/14 Q1018 BLU BLU+ TEMPO BLU
4:20 pm
V
73 °F 6¼ mi+ 12.000 ft 030° 030° 3 kt METAR ETHL 041420Z 03003KT 9999 VCSH SCT040 BKN120 23/14 Q1019 BLU BLU+ TEMPO BLU
3:20 pm
V
75 °F 6¼ mi+ 14.000 ft 350° 350° 3 kt METAR ETHL 041320Z 35003KT 9999 SCT050 BKN140 24/14 Q1019 BLU BLU+ TEMPO BLU
2:20 pm
V
73 °F 6¼ mi+ 15.000 ft 360° 360° 2 kt METAR ETHL 041220Z 36002KT 9999 SCT030 BKN150 23/15 Q1019 BLU BLU+ TEMPO BLU
1:20 pm
V
73 °F 6¼ mi+ 15.000 ft 230° 230° 3 kt METAR ETHL 041120Z 23003KT 9999 FEW030 BKN150 23/15 Q1020 BLU BLU+ TEMPO BLU
12:20 pm
V
72 °F 6¼ mi+ 14.000 ft 280° 280° 6 kt METAR ETHL 041020Z 28006KT 9999 FEW030 BKN140 22/14 Q1020 BLU BLU+ TEMPO BLU
Données plus anciennes

Télécharge notre application

Un accès facile à toute la météo aéronautique sur ton téléphone portable et ta tablette.
Avec de nombreuses fonctionnalités non disponibles sur le site Web, comme la prise en charge hors ligne et une liste personnelle d'aéroports.

Nous et des tiers suivons ton comportement sur Internet sur notre site Web à l'aide de cookies. Si tu continues, nous supposons que tu acceptes notre politique en matière de cookies. Apprendre plus